Time;durP1;ratioP1;P1;durP2;ratioP2;P2;SDS_P1;SDS_P2;PMS_P1;PMS_P2;Temp;Humidity;BMP_temperature;BMP_pressure;BME280_temperature;BME280_humidity;BME280_pressure;Samples;Min_cycle;Max_cycle;Signal;HPM_P1;HPM_P2
2021/06/21 00:00:27;;;;;;;;;;;18.10;68.60;;;;;;4930861;28;78360;-66
2021/06/21 00:02:53;;;;;;;;;;;18.10;68.90;;;;;;4931764;28;78006;-67
2021/06/21 00:05:19;;;;;;;;;;;18.10;69.00;;;;;;4930749;28;77971;-70
2021/06/21 00:07:45;;;;;;;;;;;18.00;69.30;;;;;;4932075;28;75934;-68
2021/06/21 00:10:13;;;;;;;;;;;18.00;69.00;;;;;;4932338;28;75676;-66
2021/06/21 00:12:41;;;;;;;;;;;17.90;69.20;;;;;;4930904;28;77392;-68
2021/06/21 00:15:07;;;;;;;;;;;17.90;69.30;;;;;;4932088;28;77272;-70
2021/06/21 00:17:32;;;;;;;;;;;17.90;69.30;;;;;;4932110;28;75769;-69
2021/06/21 00:19:58;;;;;;;;;;;18.00;69.30;;;;;;4930798;28;75325;-65
2021/06/21 00:22:23;;;;;;;;;;;18.00;69.30;;;;;;4932005;28;75871;-68
2021/06/21 00:24:49;;;;;;;;;;;17.90;69.50;;;;;;4932783;28;74358;-65
2021/06/21 00:27:15;;;;;;;;;;;17.90;69.50;;;;;;4932293;28;75147;-66
2021/06/21 00:29:40;;;;;;;;;;;17.90;69.50;;;;;;4931894;28;76338;-67
2021/06/21 00:32:06;;;;;;;;;;;17.90;69.50;;;;;;4932069;28;75675;-63
2021/06/21 00:34:32;;;;;;;;;;;17.90;69.70;;;;;;4932047;28;76305;-64
2021/06/21 00:36:58;;;;;;;;;;;17.90;69.80;;;;;;4932183;28;75424;-62
2021/06/21 00:39:24;;;;;;;;;;;17.90;69.60;;;;;;4931917;28;75009;-69
2021/06/21 00:41:50;;;;;;;;;;;17.90;69.70;;;;;;4963462;28;78131;-69
2021/06/21 00:44:15;;;;;;;;;;;17.90;69.50;;;;;;4932098;28;75124;-69
2021/06/21 00:46:41;;;;;;;;;;;17.90;69.40;;;;;;4930314;28;77039;-68
2021/06/21 00:49:06;;;;;;;;;;;17.90;69.80;;;;;;4931909;28;75294;-69
2021/06/21 00:51:33;;;;;;;;;;;17.90;69.80;;;;;;4930270;28;75406;-69
2021/06/21 00:53:59;;;;;;;;;;;17.90;69.80;;;;;;4930305;28;75657;-67
2021/06/21 00:56:25;;;;;;;;;;;18.00;69.80;;;;;;4931899;28;75308;-63
2021/06/21 00:58:57;;;;;;;;;;;18.00;69.80;;;;;;4962947;28;77049;-63
2021/06/21 01:01:23;;;;;;;;;;;18.00;69.80;;;;;;4931977;28;74574;-63
2021/06/21 01:03:48;;;;;;;;;;;18.00;69.70;;;;;;4930162;28;77454;-67
2021/06/21 01:06:14;;;;;;;;;;;18.00;69.90;;;;;;4931673;28;74959;-66
2021/06/21 01:08:40;;;;;;;;;;;18.00;70.00;;;;;;4929916;28;77948;-66
2021/06/21 01:11:05;;;;;;;;;;;18.00;70.00;;;;;;4931852;28;74464;-66
2021/06/21 01:13:54;;;;;;;;;;;18.00;70.10;;;;;;4931414;28;74968;-66
2021/06/21 01:16:23;;;;;;;;;;;18.00;69.60;;;;;;4931609;28;75641;-64
2021/06/21 01:18:51;;;;;;;;;;;17.90;69.80;;;;;;4929949;28;77526;-64
2021/06/21 01:21:35;;;;;;;;;;;17.90;70.00;;;;;;4930989;28;75116;-68
2021/06/21 01:24:18;;;;;;;;;;;17.90;70.20;;;;;;4930029;28;77161;-68
2021/06/21 01:27:08;;;;;;;;;;;17.80;70.00;;;;;;4931424;28;75230;-66
2021/06/21 01:29:33;;;;;;;;;;;17.70;70.20;;;;;;4931541;28;75725;-66
2021/06/21 01:32:02;;;;;;;;;;;17.60;69.90;;;;;;4931670;28;74484;-70
2021/06/21 01:34:28;;;;;;;;;;;17.60;69.50;;;;;;4931669;28;75036;-65
2021/06/21 01:36:54;;;;;;;;;;;17.50;69.10;;;;;;4931125;28;75817;-64
2021/06/21 01:39:20;;;;;;;;;;;17.50;68.70;;;;;;4930446;28;76911;-69
2021/06/21 01:41:48;;;;;;;;;;;17.50;68.20;;;;;;4931417;28;75215;-72
2021/06/21 01:44:16;;;;;;;;;;;17.40;68.00;;;;;;4930165;28;76861;-65
2021/06/21 01:46:42;;;;;;;;;;;17.40;67.70;;;;;;4930099;28;77487;-67
2021/06/21 01:49:10;;;;;;;;;;;17.40;67.60;;;;;;4931210;28;75320;-67
2021/06/21 01:51:36;;;;;;;;;;;17.40;68.10;;;;;;4931205;28;75597;-67
2021/06/21 01:54:02;;;;;;;;;;;17.30;68.30;;;;;;4929617;28;77821;-69
2021/06/21 01:56:33;;;;;;;;;;;17.30;68.60;;;;;;4931335;28;75357;-64
2021/06/21 01:59:01;;;;;;;;;;;17.20;68.60;;;;;;4931082;28;75557;-67
2021/06/21 02:01:27;;;;;;;;;;;17.20;68.70;;;;;;4961949;28;76212;-65
2021/06/21 02:03:54;;;;;;;;;;;17.10;68.90;;;;;;4931004;28;75212;-64
2021/06/21 02:06:20;;;;;;;;;;;17.00;68.80;;;;;;4930793;28;75213;-66
2021/06/21 02:08:48;;;;;;;;;;;17.00;68.50;;;;;;4929382;28;74813;-65
2021/06/21 02:11:14;;;;;;;;;;;17.00;68.20;;;;;;4929250;28;76031;-67
2021/06/21 02:13:40;;;;;;;;;;;17.00;68.10;;;;;;4931756;28;74742;-64
2021/06/21 02:16:06;;;;;;;;;;;17.00;67.80;;;;;;4933972;28;75279;-68
2021/06/21 02:18:32;;;;;;;;;;;16.90;67.80;;;;;;4964566;28;75772;-63
2021/06/21 02:20:58;;;;;;;;;;;16.90;67.90;;;;;;4933818;28;75606;-69
2021/06/21 02:23:24;;;;;;;;;;;16.90;68.00;;;;;;4931993;28;76802;-66
2021/06/21 02:25:50;;;;;;;;;;;16.80;68.10;;;;;;4933765;28;75284;-68
2021/06/21 02:28:16;;;;;;;;;;;16.80;68.10;;;;;;4932049;28;78230;-70
2021/06/21 02:30:42;;;;;;;;;;;16.70;68.20;;;;;;4933956;28;74443;-69
2021/06/21 02:33:07;;;;;;;;;;;16.70;68.40;;;;;;4932069;28;74588;-69
2021/06/21 02:35:33;;;;;;;;;;;16.70;68.50;;;;;;4931986;28;75453;-65
2021/06/21 02:37:59;;;;;;;;;;;16.60;68.60;;;;;;4933638;28;75221;-68
2021/06/21 02:40:25;;;;;;;;;;;16.60;68.70;;;;;;4933767;28;74632;-65
2021/06/21 02:42:51;;;;;;;;;;;16.50;68.70;;;;;;4933704;28;77138;-63
2021/06/21 02:45:16;;;;;;;;;;;16.60;68.70;;;;;;4933469;28;75141;-62
2021/06/21 02:47:43;;;;;;;;;;;16.60;68.60;;;;;;4933617;28;74581;-62
2021/06/21 02:50:09;;;;;;;;;;;16.50;68.50;;;;;;4931784;28;77789;-63
2021/06/21 02:52:37;;;;;;;;;;;16.50;68.50;;;;;;4933090;28;75663;-65
2021/06/21 02:55:17;;;;;;;;;;;16.40;68.70;;;;;;4931941;28;75519;-64
2021/06/21 02:58:03;;;;;;;;;;;16.40;68.60;;;;;;4933204;28;74676;-66
2021/06/21 03:00:29;;;;;;;;;;;16.40;68.80;;;;;;4944996;28;77374;-62
2021/06/21 03:02:55;;;;;;;;;;;16.30;68.70;;;;;;4933240;28;75262;-62
2021/06/21 03:05:22;;;;;;;;;;;16.20;68.70;;;;;;4933193;28;75228;-63
2021/06/21 03:07:49;;;;;;;;;;;16.20;68.90;;;;;;4933173;28;74476;-62
2021/06/21 03:10:15;;;;;;;;;;;16.20;68.90;;;;;;4932991;28;75042;-62
2021/06/21 03:12:41;;;;;;;;;;;16.10;68.80;;;;;;4931678;28;77773;-62
2021/06/21 03:15:07;;;;;;;;;;;16.10;68.90;;;;;;4931040;28;75162;-62
2021/06/21 03:17:36;;;;;;;;;;;16.10;68.70;;;;;;4932770;28;77018;-63
2021/06/21 03:20:02;;;;;;;;;;;16.00;68.50;;;;;;4933095;28;74536;-66
2021/06/21 03:22:29;;;;;;;;;;;16.00;68.60;;;;;;4932862;28;75154;-63
2021/06/21 03:24:55;;;;;;;;;;;16.00;68.60;;;;;;4933094;28;75232;-63
2021/06/21 03:27:30;;;;;;;;;;;16.00;68.50;;;;;;4931497;28;77813;-62
2021/06/21 03:29:56;;;;;;;;;;;16.00;68.30;;;;;;4932183;28;76879;-63
2021/06/21 03:32:33;;;;;;;;;;;16.00;68.10;;;;;;4933241;28;75656;-70
2021/06/21 03:35:00;;;;;;;;;;;15.90;68.20;;;;;;4963868;28;78459;-66
2021/06/21 03:37:27;;;;;;;;;;;15.90;68.30;;;;;;4931017;28;76874;-64
2021/06/21 03:39:53;;;;;;;;;;;15.80;68.40;;;;;;4931181;28;76525;-64
2021/06/21 03:42:18;;;;;;;;;;;15.70;68.20;;;;;;4932836;28;75606;-68
2021/06/21 03:44:44;;;;;;;;;;;15.70;68.50;;;;;;4932732;28;75110;-70
2021/06/21 03:47:14;;;;;;;;;;;15.70;68.40;;;;;;4932720;28;75007;-70
2021/06/21 03:49:40;;;;;;;;;;;15.60;68.30;;;;;;4932537;28;75221;-69
2021/06/21 03:52:06;;;;;;;;;;;15.60;67.90;;;;;;4931457;28;77053;-71
2021/06/21 03:54:32;;;;;;;;;;;15.60;67.80;;;;;;4931147;28;76206;-67
2021/06/21 03:56:58;;;;;;;;;;;15.60;67.60;;;;;;4930936;28;76617;-67
2021/06/21 03:59:23;;;;;;;;;;;15.60;67.60;;;;;;4932587;28;75122;-69
2021/06/21 04:01:49;;;;;;;;;;;15.60;67.40;;;;;;4963384;28;77140;-67
2021/06/21 04:04:15;;;;;;;;;;;15.60;67.40;;;;;;4931354;28;76900;-70
2021/06/21 04:06:40;;;;;;;;;;;15.60;66.80;;;;;;4932154;28;75164;-61
2021/06/21 04:09:06;;;;;;;;;;;15.50;66.70;;;;;;4932666;28;75216;-65
2021/06/21 04:11:32;;;;;;;;;;;15.40;67.00;;;;;;4933108;28;74487;-69
2021/06/21 04:13:57;;;;;;;;;;;15.40;66.90;;;;;;4932401;28;75344;-70
2021/06/21 04:16:23;;;;;;;;;;;15.40;66.80;;;;;;4931055;28;75929;-69
2021/06/21 04:18:49;;;;;;;;;;;15.40;67.00;;;;;;4930849;28;78529;-62
2021/06/21 04:21:15;;;;;;;;;;;15.40;66.90;;;;;;4931967;28;75509;-62
2021/06/21 04:23:40;;;;;;;;;;;15.40;66.40;;;;;;4932254;28;75134;-62
2021/06/21 04:26:06;;;;;;;;;;;15.30;66.50;;;;;;4932414;28;75246;-62
2021/06/21 04:28:31;;;;;;;;;;;15.30;66.10;;;;;;4930702;28;78177;-66
2021/06/21 04:30:57;;;;;;;;;;;15.30;66.30;;;;;;4932808;28;74829;-62
2021/06/21 04:33:23;;;;;;;;;;;15.30;66.40;;;;;;4932360;28;75255;-67
2021/06/21 04:35:48;;;;;;;;;;;15.30;66.30;;;;;;4931209;28;75218;-63
2021/06/21 04:38:17;;;;;;;;;;;15.20;66.00;;;;;;4932080;28;74466;-62
2021/06/21 04:40:42;;;;;;;;;;;15.10;65.70;;;;;;4930750;28;77142;-67
2021/06/21 04:43:09;;;;;;;;;;;15.10;66.20;;;;;;4932236;28;75228;-63
2021/06/21 04:45:35;;;;;;;;;;;15.10;66.30;;;;;;4932363;28;74484;-62
2021/06/21 04:48:01;;;;;;;;;;;15.00;65.80;;;;;;4930957;28;75324;-65
2021/06/21 04:50:27;;;;;;;;;;;14.90;65.90;;;;;;4930646;28;76945;-63
2021/06/21 04:52:53;;;;;;;;;;;14.90;66.20;;;;;;4931799;28;75308;-65
2021/06/21 04:55:20;;;;;;;;;;;14.90;66.50;;;;;;4930676;28;74530;-63
2021/06/21 04:57:46;;;;;;;;;;;15.00;66.40;;;;;;4930149;28;77655;-63
2021/06/21 05:00:16;;;;;;;;;;;15.00;66.10;;;;;;4930381;28;77389;-63
2021/06/21 05:02:42;;;;;;;;;;;15.00;66.00;;;;;;4931878;28;75162;-63
2021/06/21 05:05:08;;;;;;;;;;;15.00;66.00;;;;;;4931698;28;75127;-63
2021/06/21 05:07:34;;;;;;;;;;;14.90;65.90;;;;;;4930167;28;77960;-67
2021/06/21 05:10:00;;;;;;;;;;;14.90;66.10;;;;;;4930186;28;75189;-64
2021/06/21 05:12:26;;;;;;;;;;;14.90;66.10;;;;;;4962573;28;78226;-63
2021/06/21 05:14:51;;;;;;;;;;;14.90;66.20;;;;;;4931598;28;74466;-64
2021/06/21 05:17:17;;;;;;;;;;;14.80;66.20;;;;;;4931622;28;75219;-64
2021/06/21 05:19:44;;;;;;;;;;;14.80;66.30;;;;;;4931645;28;75358;-66
2021/06/21 05:22:09;;;;;;;;;;;14.80;66.10;;;;;;4931822;28;75398;-64
2021/06/21 05:24:35;;;;;;;;;;;14.80;66.30;;;;;;4931785;28;75362;-63
2021/06/21 05:27:01;;;;;;;;;;;14.80;66.20;;;;;;4931609;28;74850;-61
2021/06/21 05:29:27;;;;;;;;;;;14.80;66.10;;;;;;4930162;28;77506;-62
2021/06/21 05:31:52;;;;;;;;;;;14.80;65.90;;;;;;4929976;28;74676;-65
2021/06/21 05:34:18;;;;;;;;;;;14.80;66.00;;;;;;4930097;28;76395;-63
2021/06/21 05:36:43;;;;;;;;;;;14.80;66.00;;;;;;4929889;28;77400;-63
2021/06/21 05:39:09;;;;;;;;;;;14.80;66.00;;;;;;4931224;28;75151;-63
2021/06/21 05:41:35;;;;;;;;;;;14.70;66.10;;;;;;4929854;28;77464;-67
2021/06/21 05:44:01;;;;;;;;;;;14.80;66.10;;;;;;4929605;28;78434;-65
2021/06/21 05:46:26;;;;;;;;;;;14.80;66.00;;;;;;4928362;28;77356;-64
2021/06/21 05:48:52;;;;;;;;;;;14.90;65.90;;;;;;4931132;28;75357;-62
2021/06/21 05:51:17;;;;;;;;;;;14.90;65.70;;;;;;4930717;28;75293;-66
2021/06/21 05:53:43;;;;;;;;;;;14.90;65.70;;;;;;4931182;28;75101;-64
2021/06/21 05:56:09;;;;;;;;;;;15.00;65.60;;;;;;4930013;28;75398;-68
2021/06/21 05:58:34;;;;;;;;;;;14.90;65.00;;;;;;4929653;28;76300;-69
2021/06/21 06:01:00;;;;;;;;;;;14.90;64.90;;;;;;4929013;28;76448;-70
2021/06/21 06:03:26;;;;;;;;;;;15.00;64.80;;;;;;4929518;28;78016;-69
2021/06/21 06:05:51;;;;;;;;;;;15.00;64.90;;;;;;4927811;28;76040;-68
2021/06/21 06:08:17;;;;;;;;;;;15.00;64.80;;;;;;4928898;28;74551;-69
2021/06/21 06:10:43;;;;;;;;;;;15.20;64.40;;;;;;4928233;28;78190;-68
2021/06/21 06:13:09;;;;;;;;;;;15.20;64.20;;;;;;4928151;28;75276;-68
2021/06/21 06:15:34;;;;;;;;;;;15.30;63.80;;;;;;4927333;28;75802;-69
2021/06/21 06:18:00;;;;;;;;;;;15.30;63.40;;;;;;4930411;28;75335;-70
2021/06/21 06:20:25;;;;;;;;;;;15.30;62.40;;;;;;4928461;28;77556;-70
2021/06/21 06:22:51;;;;;;;;;;;15.30;63.00;;;;;;4929208;28;76448;-69
2021/06/21 06:25:17;;;;;;;;;;;15.40;62.30;;;;;;4930485;28;75140;-70
2021/06/21 06:27:43;;;;;;;;;;;15.40;62.50;;;;;;4930738;28;75554;-69
2021/06/21 06:30:10;;;;;;;;;;;15.40;62.10;;;;;;4929130;28;76646;-69
2021/06/21 06:32:36;;;;;;;;;;;15.40;61.80;;;;;;4929436;28;77361;-69
2021/06/21 06:35:03;;;;;;;;;;;15.50;61.40;;;;;;4931006;28;75707;-69
2021/06/21 06:37:28;;;;;;;;;;;15.50;61.40;;;;;;4929132;28;77649;-69
2021/06/21 06:39:54;;;;;;;;;;;15.50;61.40;;;;;;4929181;28;78237;-69
2021/06/21 06:42:20;;;;;;;;;;;15.60;61.40;;;;;;4929365;28;76836;-69
2021/06/21 06:44:45;;;;;;;;;;;15.60;61.50;;;;;;4930535;28;75191;-69
2021/06/21 06:47:11;;;;;;;;;;;15.60;61.50;;;;;;4928772;28;75283;-69
2021/06/21 06:49:37;;;;;;;;;;;15.60;61.60;;;;;;4928800;28;78138;-69
2021/06/21 06:52:03;;;;;;;;;;;15.60;61.60;;;;;;4930505;28;74449;-70
2021/06/21 06:54:35;;;;;;;;;;;15.60;61.80;;;;;;4928987;28;76490;-69
2021/06/21 06:57:01;;;;;;;;;;;15.70;61.70;;;;;;4930457;28;74531;-70
2021/06/21 06:59:34;;;;;;;;;;;15.70;61.10;;;;;;4931234;28;75534;-70
2021/06/21 07:02:00;;;;;;;;;;;15.70;61.40;;;;;;4933468;28;75326;-69
2021/06/21 07:04:26;;;;;;;;;;;15.80;61.10;;;;;;4933790;28;74611;-70
2021/06/21 07:06:52;;;;;;;;;;;15.90;61.20;;;;;;4931671;28;75626;-69
2021/06/21 07:09:18;;;;;;;;;;;15.90;60.90;;;;;;4933476;28;74366;-69
2021/06/21 07:11:45;;;;;;;;;;;15.90;60.60;;;;;;4931637;28;76823;-70
2021/06/21 07:14:12;;;;;;;;;;;15.90;60.60;;;;;;4932893;28;74704;-70
2021/06/21 07:16:37;;;;;;;;;;;16.00;60.80;;;;;;4932698;28;75312;-69
2021/06/21 07:19:03;;;;;;;;;;;16.00;60.80;;;;;;4933092;28;75214;-69
2021/06/21 07:21:29;;;;;;;;;;;16.10;60.70;;;;;;4931471;28;77047;-70
2021/06/21 07:23:55;;;;;;;;;;;16.10;60.70;;;;;;4932019;28;76256;-70
2021/06/21 07:26:20;;;;;;;;;;;16.20;60.20;;;;;;4933564;28;74459;-70
2021/06/21 07:28:46;;;;;;;;;;;16.20;59.90;;;;;;4932748;28;75737;-70
2021/06/21 07:31:12;;;;;;;;;;;16.30;59.50;;;;;;4932970;28;75243;-70
2021/06/21 07:33:39;;;;;;;;;;;16.30;59.70;;;;;;4931278;28;77888;-70
2021/06/21 07:36:05;;;;;;;;;;;16.30;59.80;;;;;;4932817;28;77478;-70
2021/06/21 07:38:30;;;;;;;;;;;16.40;59.40;;;;;;4932549;28;74607;-71
2021/06/21 07:40:56;;;;;;;;;;;16.40;59.30;;;;;;4932924;28;75009;-70
2021/06/21 07:43:22;;;;;;;;;;;16.50;59.20;;;;;;4931536;28;78210;-73
2021/06/21 07:45:47;;;;;;;;;;;16.50;59.00;;;;;;4933419;28;75428;-75
2021/06/21 07:48:13;;;;;;;;;;;16.60;57.90;;;;;;4931605;28;75707;-76
2021/06/21 07:50:39;;;;;;;;;;;16.60;58.40;;;;;;4931367;28;74850;-75
2021/06/21 07:53:06;;;;;;;;;;;16.70;58.40;;;;;;4931557;28;76103;-78
2021/06/21 07:55:32;;;;;;;;;;;16.80;57.90;;;;;;4931571;28;76387;-76
2021/06/21 07:57:58;;;;;;;;;;;16.80;57.80;;;;;;4931387;28;77831;-74
2021/06/21 08:00:25;;;;;;;;;;;16.90;57.50;;;;;;4933106;28;74429;-75
2021/06/21 08:02:51;;;;;;;;;;;16.90;57.40;;;;;;4930944;28;77713;-77
2021/06/21 08:05:17;;;;;;;;;;;17.00;57.00;;;;;;4932627;28;75746;-76
2021/06/21 08:07:42;;;;;;;;;;;17.00;57.00;;;;;;4930846;28;77164;-77
2021/06/21 08:10:08;;;;;;;;;;;17.10;56.20;;;;;;4929795;28;76253;-76
2021/06/21 08:12:34;;;;;;;;;;;17.10;56.20;;;;;;4930760;28;76469;-78
2021/06/21 08:15:00;;;;;;;;;;;17.00;56.40;;;;;;4930514;28;75407;-76
2021/06/21 08:17:25;;;;;;;;;;;17.10;56.40;;;;;;4930990;28;77288;-79
2021/06/21 08:19:51;;;;;;;;;;;17.10;55.80;;;;;;4932835;28;75560;-78
2021/06/21 08:22:21;;;;;;;;;;;17.10;56.00;;;;;;4931014;28;76378;-76
2021/06/21 08:24:47;;;;;;;;;;;17.20;55.90;;;;;;4932356;28;75110;-77
2021/06/21 08:27:13;;;;;;;;;;;17.30;54.90;;;;;;4930774;28;78181;-76
2021/06/21 08:29:39;;;;;;;;;;;17.40;55.40;;;;;;4931175;28;77580;-76
2021/06/21 08:32:05;;;;;;;;;;;17.50;55.10;;;;;;4930560;28;77050;-75
2021/06/21 08:34:30;;;;;;;;;;;17.60;55.00;;;;;;4931052;28;77450;-80
2021/06/21 08:36:56;;;;;;;;;;;17.70;53.40;;;;;;4932422;28;74836;-76
2021/06/21 08:39:21;;;;;;;;;;;17.70;54.00;;;;;;4931000;28;78043;-75
2021/06/21 08:41:47;;;;;;;;;;;17.80;54.00;;;;;;4932390;28;74492;-76
2021/06/21 08:44:13;;;;;;;;;;;17.90;54.10;;;;;;4930899;28;76954;-76
2021/06/21 08:46:40;;;;;;;;;;;17.90;53.80;;;;;;4930731;28;75405;-76
2021/06/21 08:49:07;;;;;;;;;;;18.00;53.60;;;;;;4932293;28;75276;-78
2021/06/21 08:51:35;;;;;;;;;;;18.10;52.70;;;;;;4932287;28;75682;-75
2021/06/21 08:54:01;;;;;;;;;;;18.10;52.80;;;;;;4932428;28;75319;-75
2021/06/21 08:56:27;;;;;;;;;;;18.10;52.80;;;;;;4930887;28;76943;-76
2021/06/21 08:58:52;;;;;;;;;;;18.20;52.70;;;;;;4932474;28;75163;-75
2021/06/21 09:01:18;;;;;;;;;;;18.20;52.00;;;;;;4929711;28;75233;-76
2021/06/21 09:03:44;;;;;;;;;;;18.20;52.40;;;;;;4931130;28;75202;-77
2021/06/21 09:06:20;;;;;;;;;;;18.10;52.70;;;;;;4962157;28;77495;-74
2021/06/21 09:08:54;;;;;;;;;;;18.20;52.20;;;;;;4931092;28;75453;-74
2021/06/21 09:11:20;;;;;;;;;;;18.30;51.80;;;;;;4931360;28;77282;-74
2021/06/21 09:13:47;;;;;;;;;;;18.40;51.70;;;;;;4930157;28;76761;-75
2021/06/21 09:16:12;;;;;;;;;;;18.50;51.60;;;;;;4930319;28;75215;-76
2021/06/21 09:18:39;;;;;;;;;;;18.60;50.80;;;;;;4931271;28;74503;-75
2021/06/21 09:21:24;;;;;;;;;;;18.70;51.00;;;;;;4929550;28;78544;-76
2021/06/21 09:23:51;;;;;;;;;;;18.80;50.60;;;;;;4930866;28;75725;-79
2021/06/21 09:26:18;;;;;;;;;;;18.90;49.90;;;;;;4929738;28;78396;-76
2021/06/21 09:28:44;;;;;;;;;;;19.00;50.50;;;;;;4930307;28;77346;-75
2021/06/21 09:31:10;;;;;;;;;;;19.00;50.50;;;;;;4930361;28;74950;-76
2021/06/21 09:33:36;;;;;;;;;;;19.10;49.70;;;;;;4931860;28;75397;-77
2021/06/21 09:36:02;;;;;;;;;;;19.10;49.90;;;;;;4930953;28;77458;-76
2021/06/21 09:38:28;;;;;;;;;;;19.20;49.60;;;;;;4931780;28;76666;-80
2021/06/21 09:40:55;;;;;;;;;;;19.10;50.00;;;;;;4930549;28;77939;-81
2021/06/21 09:43:22;;;;;;;;;;;19.20;50.40;;;;;;4932622;28;75027;-75
2021/06/21 09:46:04;;;;;;;;;;;19.20;49.00;;;;;;4929954;28;78215;-67
2021/06/21 09:48:48;;;;;;;;;;;19.20;48.70;;;;;;4931704;28;74553;-66
2021/06/21 09:51:16;;;;;;;;;;;19.30;48.80;;;;;;4929784;28;78431;-71
2021/06/21 09:53:51;;;;;;;;;;;19.40;48.90;;;;;;4929668;28;74747;-71
2021/06/21 09:56:32;;;;;;;;;;;19.40;49.30;;;;;;4931471;28;74581;-70
2021/06/21 09:58:58;;;;;;;;;;;19.60;49.30;;;;;;4931382;28;75380;-70
2021/06/21 10:01:28;;;;;;;;;;;19.70;47.70;;;;;;4929897;28;78323;-72
2021/06/21 10:03:53;;;;;;;;;;;19.70;46.90;;;;;;4929328;28;77455;-70
2021/06/21 10:06:19;;;;;;;;;;;19.70;46.90;;;;;;4929798;28;75358;-72
2021/06/21 10:08:45;;;;;;;;;;;19.70;46.90;;;;;;4929365;28;76524;-71
2021/06/21 10:11:30;;;;;;;;;;;19.70;47.30;;;;;;4929964;28;77707;-72
2021/06/21 10:13:57;;;;;;;;;;;19.90;46.30;;;;;;4929261;28;77458;-72
2021/06/21 10:16:22;;;;;;;;;;;19.90;47.10;;;;;;4929405;28;77579;-71
2021/06/21 10:18:48;;;;;;;;;;;20.10;47.10;;;;;;4931347;28;74325;-73
2021/06/21 10:21:14;;;;;;;;;;;20.20;46.10;;;;;;4929377;28;75183;-71
2021/06/21 10:23:40;;;;;;;;;;;20.30;45.80;;;;;;4929290;28;77456;-71
2021/06/21 10:26:07;;;;;;;;;;;20.40;46.10;;;;;;4929176;28;75522;-71
2021/06/21 10:28:34;;;;;;;;;;;20.50;45.30;;;;;;4931165;28;74726;-70
2021/06/21 10:31:00;;;;;;;;;;;20.60;45.50;;;;;;4931080;28;75595;-70
2021/06/21 10:33:26;;;;;;;;;;;20.70;45.00;;;;;;4932075;28;75173;-72
2021/06/21 10:35:57;;;;;;;;;;;20.80;45.30;;;;;;4932433;28;77112;-71
2021/06/21 10:38:23;;;;;;;;;;;20.90;44.70;;;;;;4933305;28;76332;-71
2021/06/21 10:40:53;;;;;;;;;;;21.10;44.50;;;;;;4931925;28;75543;-72
2021/06/21 10:43:37;;;;;;;;;;;21.10;44.70;;;;;;4932126;28;78535;-71
2021/06/21 10:46:23;;;;;;;;;;;21.20;44.40;;;;;;4931964;28;78330;-71
2021/06/21 10:49:06;;;;;;;;;;;21.30;44.80;;;;;;4931618;28;74832;-71
2021/06/21 10:51:35;;;;;;;;;;;21.50;45.00;;;;;;4932007;28;78602;-71
2021/06/21 10:54:01;;;;;;;;;;;21.80;43.20;;;;;;4931618;28;76957;-71
2021/06/21 10:56:45;;;;;;;;;;;21.90;42.90;;;;;;4933721;28;75805;-71
2021/06/21 10:59:15;;;;;;;;;;;22.10;43.20;;;;;;4932211;28;77499;-70
2021/06/21 11:01:50;;;;;;;;;;;22.30;42.30;;;;;;4931252;28;75720;-69
2021/06/21 11:04:31;;;;;;;;;;;22.40;42.60;;;;;;4931968;28;75476;-71
2021/06/21 11:07:09;;;;;;;;;;;22.80;42.00;;;;;;4931597;28;76910;-71
2021/06/21 11:09:40;;;;;;;;;;;23.00;40.40;;;;;;4932794;28;75043;-71
2021/06/21 11:12:26;;;;;;;;;;;23.30;40.80;;;;;;4933186;28;74554;-69
2021/06/21 11:15:08;;;;;;;;;;;23.50;38.30;;;;;;4931268;28;75440;-71
2021/06/21 11:17:46;;;;;;;;;;;23.70;39.50;;;;;;4932072;28;77524;-73
2021/06/21 11:20:35;;;;;;;;;;;23.90;38.90;;;;;;4931764;28;77899;-70
2021/06/21 11:23:02;;;;;;;;;;;24.50;37.10;;;;;;4913161;28;74604;-72
2021/06/21 11:25:28;;;;;;;;;;;24.50;38.50;;;;;;4933790;28;74410;-72
2021/06/21 11:27:54;;;;;;;;;;;24.90;38.00;;;;;;4933199;28;75297;-73
2021/06/21 11:30:42;;;;;;;;;;;25.40;36.90;;;;;;4931392;28;75423;-72
2021/06/21 11:33:14;;;;;;;;;;;25.70;34.80;;;;;;4933118;28;75148;-73
2021/06/21 11:35:46;;;;;;;;;;;25.90;35.10;;;;;;4933154;28;74582;-72
2021/06/21 11:38:21;;;;;;;;;;;26.40;33.20;;;;;;4931225;28;75289;-72
2021/06/21 11:40:46;;;;;;;;;;;27.00;33.10;;;;;;4931516;28;75280;-69
2021/06/21 11:43:13;;;;;;;;;;;27.00;33.40;;;;;;4932033;28;77646;-72
2021/06/21 11:45:47;;;;;;;;;;;28.00;33.00;;;;;;4932670;28;75125;-70
2021/06/21 11:48:42;;;;;;;;;;;29.00;31.50;;;;;;4932930;28;74408;-70
2021/06/21 11:51:17;;;;;;;;;;;29.90;29.90;;;;;;4927966;28;74636;-70
2021/06/21 11:53:43;;;;;;;;;;;28.60;30.70;;;;;;4931065;28;77425;-70
2021/06/21 11:56:13;;;;;;;;;;;29.20;30.30;;;;;;4932768;28;74945;-70
2021/06/21 11:58:38;;;;;;;;;;;30.50;28.40;;;;;;4931124;28;75799;-70
2021/06/21 12:01:15;;;;;;;;;;;31.80;28.00;;;;;;4932618;28;75050;-70
2021/06/21 12:03:44;;;;;;;;;;;33.10;26.40;;;;;;4931180;28;75538;-69
2021/06/21 12:06:13;;;;;;;;;;;34.60;25.30;;;;;;4930913;28;74546;-70
2021/06/21 12:08:39;;;;;;;;;;;35.00;24.00;;;;;;4930380;28;77429;-70
2021/06/21 12:11:15;;;;;;;;;;;35.60;24.40;;;;;;4932848;28;74600;-70
2021/06/21 12:13:44;;;;;;;;;;;36.20;22.60;;;;;;4930593;28;75837;-70
2021/06/21 12:16:14;;;;;;;;;;;35.60;24.20;;;;;;4932817;28;74459;-71
2021/06/21 12:18:39;;;;;;;;;;;36.40;22.20;;;;;;4930887;28;74578;-71
2021/06/21 12:21:05;;;;;;;;;;;36.60;22.40;;;;;;4930678;28;76512;-72
2021/06/21 12:23:31;;;;;;;;;;;37.00;22.60;;;;;;4932309;28;75241;-70
2021/06/21 12:25:57;;;;;;;;;;;37.60;21.60;;;;;;4930622;28;78218;-72
2021/06/21 12:28:24;;;;;;;;;;;38.20;20.50;;;;;;4932297;28;75163;-76
2021/06/21 12:30:50;;;;;;;;;;;38.30;21.40;;;;;;4932221;28;75098;-70
2021/06/21 12:33:21;;;;;;;;;;;38.60;21.10;;;;;;4932163;28;75694;-78
2021/06/21 12:36:06;;;;;;;;;;;38.50;20.90;;;;;;4932586;28;75437;-75
2021/06/21 12:38:32;;;;;;;;;;;38.30;21.50;;;;;;4930549;28;75316;-74
2021/06/21 12:40:58;;;;;;;;;;;39.20;20.50;;;;;;4930607;28;74636;-79
2021/06/21 12:43:23;;;;;;;;;;;39.70;19.40;;;;;;4930702;28;75108;-72
2021/06/21 12:45:49;;;;;;;;;;;39.50;18.90;;;;;;4930753;28;77116;-74
2021/06/21 12:48:16;;;;;;;;;;;39.00;19.80;;;;;;4930745;28;78028;-76
2021/06/21 12:50:42;;;;;;;;;;;35.80;21.30;;;;;;4932236;28;75202;-72
2021/06/21 12:53:08;;;;;;;;;;;34.70;22.80;;;;;;4932114;28;75196;-72
2021/06/21 12:55:35;;;;;;;;;;;35.20;21.90;;;;;;4929753;28;75398;-73
2021/06/21 12:58:03;;;;;;;;;;;32.90;24.30;;;;;;4932147;28;75740;-70
2021/06/21 13:00:37;;;;;;;;;;;32.90;25.40;;;;;;4931618;28;75792;-75
2021/06/21 13:03:13;;;;;;;;;;;35.50;23.30;;;;;;4930463;28;75654;-71
2021/06/21 13:05:49;;;;;;;;;;;36.30;21.60;;;;;;4946325;28;75270;-74
2021/06/21 13:08:28;;;;;;;;;;;37.30;21.00;;;;;;4949097;28;77646;-74
2021/06/21 13:11:00;;;;;;;;;;;39.00;19.60;;;;;;4935956;28;74563;-71
2021/06/21 13:13:40;;;;;;;;;;;39.10;19.30;;;;;;4930253;28;77439;-75
2021/06/21 13:16:09;;;;;;;;;;;37.50;20.30;;;;;;4932352;28;75150;-78
2021/06/21 13:18:48;;;;;;;;;;;36.80;21.70;;;;;;4930788;28;75748;-73
2021/06/21 13:21:15;;;;;;;;;;;38.40;20.00;;;;;;4930962;28;76179;-71
2021/06/21 13:23:50;;;;;;;;;;;39.80;18.20;;;;;;4931883;28;75081;-71
2021/06/21 13:26:16;;;;;;;;;;;40.10;19.90;;;;;;4930390;28;75396;-73
2021/06/21 13:28:44;;;;;;;;;;;41.50;18.20;;;;;;4932332;28;75197;-73
2021/06/21 13:31:11;;;;;;;;;;;42.10;17.30;;;;;;4931054;28;74659;-75
2021/06/21 13:33:46;;;;;;;;;;;39.50;19.40;;;;;;4934198;28;74877;-75
2021/06/21 13:36:12;;;;;;;;;;;39.10;19.30;;;;;;4930896;28;76366;-70
2021/06/21 13:38:38;;;;;;;;;;;40.60;19.20;;;;;;4930731;28;77519;-71
2021/06/21 13:41:15;;;;;;;;;;;41.50;18.50;;;;;;4930628;28;76372;-74
2021/06/21 13:43:41;;;;;;;;;;;41.10;18.40;;;;;;4931065;28;76265;-77
2021/06/21 13:46:11;;;;;;;;;;;38.40;19.90;;;;;;4932075;28;75120;-77
2021/06/21 13:48:37;;;;;;;;;;;38.70;18.90;;;;;;4930991;28;74681;-74
2021/06/21 13:51:14;;;;;;;;;;;39.90;19.20;;;;;;4930359;28;77520;-78
2021/06/21 13:53:39;;;;;;;;;;;40.90;18.60;;;;;;4930123;28;75748;-76
2021/06/21 13:56:07;;;;;;;;;;;42.20;17.00;;;;;;4931671;28;75265;-73
2021/06/21 13:58:55;;;;;;;;;;;43.00;16.10;;;;;;4929834;28;76062;-75
2021/06/21 14:01:21;;;;;;;;;;;43.60;17.60;;;;;;4928108;28;75131;-76
2021/06/21 14:03:48;;;;;;;;;;;44.20;16.90;;;;;;4929214;28;78675;-72
2021/06/21 14:06:15;;;;;;;;;;;42.40;16.20;;;;;;4929628;28;76968;-75
2021/06/21 14:08:41;;;;;;;;;;;39.20;19.20;;;;;;4929997;28;77712;-74
2021/06/21 14:11:09;;;;;;;;;;;36.10;21.60;;;;;;4934753;28;75325;-76
2021/06/21 14:13:39;;;;;;;;;;;34.60;22.20;;;;;;4934275;28;75362;-72
2021/06/21 14:16:06;;;;;;;;;;;33.40;23.70;;;;;;4932596;28;75741;-75
2021/06/21 14:18:32;;;;;;;;;;;33.00;24.10;;;;;;4932925;28;75846;-76
2021/06/21 14:20:59;;;;;;;;;;;35.20;23.00;;;;;;4932383;28;78207;-76